Time;durP1;ratioP1;P1;durP2;ratioP2;P2;SDS_P1;SDS_P2;PMS_P1;PMS_P2;Temp;Humidity;BMP_temperature;BMP_pressure;BME280_temperature;BME280_humidity;BME280_pressure;Samples;Min_cycle;Max_cycle;Signal;HPM_P1;HPM_P2
2023/11/29 00:02:13;;;;;;;5.05;2.35;;;;;;;-3.63;100.00;99479.00;5021295;28;20057;-89
2023/11/29 00:04:46;;;;;;;4.85;2.58;;;;;;;-3.65;100.00;99466.94;5008809;28;20069;-85
2023/11/29 00:07:20;;;;;;;8.10;2.95;;;;;;;-3.63;100.00;99472.88;5010492;28;20052;-89
2023/11/29 00:09:49;;;;;;;4.70;2.20;;;;;;;-3.54;100.00;99470.75;5023584;28;20058;-89
2023/11/29 00:12:17;;;;;;;3.63;1.83;;;;;;;-3.55;100.00;99453.16;5007720;28;20053;-90
2023/11/29 00:14:45;;;;;;;2.90;1.88;;;;;;;-3.55;100.00;99451.31;5009349;28;20038;-89
2023/11/29 00:17:19;;;;;;;4.05;1.90;;;;;;;-3.52;100.00;99434.94;5004024;28;20054;-89
2023/11/29 00:19:52;;;;;;;2.38;1.60;;;;;;;-3.48;100.00;99430.81;5013761;28;20058;-89
2023/11/29 00:22:25;;;;;;;3.13;2.28;;;;;;;-3.50;100.00;99422.22;5009357;28;20062;-86
2023/11/29 00:25:00;;;;;;;3.40;1.52;;;;;;;-3.50;100.00;99426.72;5012176;28;20053;-87
2023/11/29 00:27:33;;;;;;;3.72;2.38;;;;;;;-3.54;100.00;99420.22;5029307;28;20054;-89
2023/11/29 00:30:07;;;;;;;2.90;2.13;;;;;;;-3.46;100.00;99419.94;5008865;28;20061;-89
2023/11/29 00:32:40;;;;;;;3.97;1.67;;;;;;;-3.41;100.00;99412.13;5023327;28;20054;-91
2023/11/29 00:35:09;;;;;;;3.60;2.17;;;;;;;-3.41;100.00;99414.78;5013895;28;20053;-89
2023/11/29 00:37:42;;;;;;;2.05;1.60;;;;;;;-3.37;100.00;99417.81;5019006;28;20050;-88
2023/11/29 00:40:11;;;;;;;4.82;2.78;;;;;;;-3.35;100.00;99408.56;5023766;28;20046;-89
2023/11/29 00:42:45;;;;;;;4.45;2.03;;;;;;;-3.30;100.00;99411.41;5024738;28;20047;-89
2023/11/29 00:45:18;;;;;;;4.57;2.72;;;;;;;-3.31;100.00;99403.63;5012311;28;20060;-88
2023/11/29 00:47:51;;;;;;;6.93;2.45;;;;;;;-3.36;100.00;99387.50;5012761;28;20053;-90
2023/11/29 00:50:19;;;;;;;4.18;2.60;;;;;;;-3.23;100.00;99392.72;5029831;28;20053;-90
2023/11/29 00:52:53;;;;;;;5.03;2.53;;;;;;;-3.26;100.00;99396.63;5011705;28;20053;-89
2023/11/29 00:55:22;;;;;;;4.40;2.17;;;;;;;-3.30;100.00;99382.13;5004770;28;20042;-89
2023/11/29 00:57:50;;;;;;;4.40;2.30;;;;;;;-3.21;100.00;99389.81;5004089;28;20053;-89
2023/11/29 01:00:24;;;;;;;2.75;2.03;;;;;;;-3.22;100.00;99382.88;5007019;28;20505;-90
2023/11/29 01:02:57;;;;;;;4.80;2.80;;;;;;;-3.16;100.00;99374.00;5014071;28;20045;-88
2023/11/29 01:05:25;;;;;;;2.70;2.00;;;;;;;-3.14;100.00;99374.59;5011999;28;20509;-89
2023/11/29 01:07:55;;;;;;;3.03;2.13;;;;;;;-3.14;100.00;99363.94;5015764;28;20052;-88
2023/11/29 01:10:24;;;;;;;3.55;2.33;;;;;;;-3.13;100.00;99358.41;5006218;28;20061;-88
2023/11/29 01:12:53;;;;;;;2.47;1.83;;;;;;;-3.06;100.00;99362.84;5010679;28;20066;-90
2023/11/29 01:15:26;;;;;;;4.45;2.20;;;;;;;-3.08;100.00;99361.22;5006095;28;20045;-88
2023/11/29 01:17:59;;;;;;;3.20;2.13;;;;;;;-3.06;100.00;99355.66;5029805;28;20049;-89
2023/11/29 01:20:33;;;;;;;4.20;2.22;;;;;;;-3.03;100.00;99362.41;5011292;28;20058;-89
2023/11/29 01:23:06;;;;;;;11.02;3.58;;;;;;;-3.01;100.00;99349.66;5005711;28;20073;-88
2023/11/29 01:25:41;;;;;;;4.78;2.50;;;;;;;-2.95;100.00;99346.94;5028259;28;20506;-89
2023/11/29 01:28:10;;;;;;;4.57;2.67;;;;;;;-2.92;100.00;99348.34;5013923;28;20050;-88
2023/11/29 01:30:44;;;;;;;5.20;2.63;;;;;;;-2.91;100.00;99347.31;5013835;28;20057;-88
2023/11/29 01:33:17;;;;;;;6.30;2.78;;;;;;;-2.88;100.00;99343.38;5011512;28;20118;-88
2023/11/29 01:35:50;;;;;;;3.45;2.05;;;;;;;-2.91;100.00;99348.09;5005443;28;20053;-88
2023/11/29 01:38:23;;;;;;;4.65;2.88;;;;;;;-2.88;100.00;99352.16;5008355;28;20046;-88
2023/11/29 01:40:53;;;;;;;6.47;3.15;;;;;;;-2.85;100.00;99358.91;5009755;28;20483;-89
2023/11/29 01:43:27;;;;;;;4.22;2.42;;;;;;;-2.85;100.00;99353.56;4998394;28;20050;-89
2023/11/29 01:45:55;;;;;;;4.40;2.88;;;;;;;-2.79;100.00;99345.50;5024542;28;20069;-88
2023/11/29 01:48:25;;;;;;;4.53;2.88;;;;;;;-2.77;100.00;99343.41;5010852;28;20056;-88
2023/11/29 01:50:55;;;;;;;4.20;3.22;;;;;;;-2.74;100.00;99342.97;5005985;28;20038;-88
2023/11/29 01:53:27;;;;;;;4.88;2.60;;;;;;;-2.69;100.00;99344.13;5010909;28;20058;-89
2023/11/29 01:56:01;;;;;;;4.63;3.08;;;;;;;-2.67;100.00;99340.22;5025371;28;20062;-89
2023/11/29 01:58:35;;;;;;;4.97;2.70;;;;;;;-2.66;100.00;99338.38;5011435;28;20053;-88
2023/11/29 02:01:08;;;;;;;5.13;3.28;;;;;;;-2.61;100.00;99335.84;5011674;28;20042;-89
2023/11/29 02:03:41;;;;;;;6.38;2.92;;;;;;;-2.56;100.00;99336.78;5007589;28;20069;-88
2023/11/29 02:06:10;;;;;;;6.38;3.63;;;;;;;-2.53;100.00;99324.06;5012553;28;20053;-88
2023/11/29 02:08:38;;;;;;;3.33;2.20;;;;;;;-2.49;100.00;99312.72;5024568;28;20057;-89
2023/11/29 02:11:17;;;;;;;5.88;3.55;;;;;;;-2.48;100.00;99311.69;5005793;28;20601;-89
2023/11/29 02:13:45;;;;;;;6.82;3.80;;;;;;;-2.45;100.00;99300.56;5024144;28;20045;-89
2023/11/29 02:16:19;;;;;;;5.28;3.60;;;;;;;-2.36;100.00;99306.38;5004300;28;20057;-90
2023/11/29 02:18:47;;;;;;;4.45;2.65;;;;;;;-2.35;100.00;99300.00;5008742;28;20050;-88
2023/11/29 02:21:15;;;;;;;5.75;3.15;;;;;;;-2.37;100.00;99298.63;5020180;28;20372;-89
2023/11/29 02:23:58;;;;;;;5.85;3.63;;;;;;;-2.26;100.00;99297.84;5019142;28;20061;-87
2023/11/29 02:26:27;;;;;;;5.45;3.00;;;;;;;-2.23;100.00;99302.69;5017528;28;20129;-88
2023/11/29 02:28:56;;;;;;;6.45;3.42;;;;;;;-2.15;100.00;99289.03;5007235;28;20053;-89
2023/11/29 02:31:29;;;;;;;7.22;3.75;;;;;;;-2.15;100.00;99286.38;5011614;28;20073;-84
2023/11/29 02:33:58;;;;;;;6.68;3.70;;;;;;;-2.02;100.00;99276.53;5006729;28;20049;-90
2023/11/29 02:36:26;;;;;;;7.30;4.05;;;;;;;-2.02;100.00;99274.66;5007740;28;20057;-89
2023/11/29 02:38:59;;;;;;;3.47;1.90;;;;;;;-1.88;100.00;99275.25;5008919;28;20495;-89
2023/11/29 02:41:37;;;;;;;6.60;4.47;;;;;;;-1.93;100.00;99267.94;5004435;28;20052;-87
2023/11/29 02:44:06;;;;;;;5.47;3.28;;;;;;;-1.94;100.00;99263.66;5010472;28;20057;-90
2023/11/29 02:46:34;;;;;;;8.43;4.18;;;;;;;-1.92;100.00;99264.25;5015032;28;20647;-90
2023/11/29 02:49:02;;;;;;;7.22;4.25;;;;;;;-1.86;100.00;99262.50;5008253;28;20050;-89
2023/11/29 02:51:36;;;;;;;7.55;4.97;;;;;;;-1.87;100.00;99258.19;5006614;28;20050;-89
2023/11/29 02:54:04;;;;;;;8.63;5.25;;;;;;;-1.82;100.00;99258.31;5002215;28;20054;-89
2023/11/29 02:56:39;;;;;;;6.75;4.63;;;;;;;-1.78;100.00;99250.66;5021951;28;20385;-88
2023/11/29 02:59:12;;;;;;;6.07;3.88;;;;;;;-1.80;100.00;99245.56;5010676;28;20049;-89
2023/11/29 03:01:45;;;;;;;5.28;3.88;;;;;;;-1.74;100.00;99239.28;5016515;28;20050;-89
2023/11/29 03:04:18;;;;;;;10.13;4.60;;;;;;;-1.68;100.00;99240.22;5004334;28;20053;-89
2023/11/29 03:06:52;;;;;;;7.65;3.67;;;;;;;-1.65;100.00;99247.75;5010832;28;20054;-88
2023/11/29 03:09:25;;;;;;;7.03;4.32;;;;;;;-1.66;100.00;99237.31;5002693;28;20137;-90
2023/11/29 03:12:00;;;;;;;6.47;3.83;;;;;;;-1.66;100.00;99237.31;5024144;28;20053;-89
2023/11/29 03:14:33;;;;;;;8.57;5.38;;;;;;;-1.62;100.00;99231.25;5014152;28;20054;-90
2023/11/29 03:17:06;;;;;;;6.15;4.10;;;;;;;-1.61;100.00;99227.56;5020758;28;20046;-88
2023/11/29 03:19:39;;;;;;;10.93;4.93;;;;;;;-1.58;100.00;99228.94;5002904;28;20054;-89
2023/11/29 03:22:13;;;;;;;10.85;5.57;;;;;;;-1.51;100.00;99231.47;5001090;28;20053;-88
2023/11/29 03:24:46;;;;;;;7.90;5.07;;;;;;;-1.55;100.00;99223.13;5009627;28;20057;-89
2023/11/29 03:27:21;;;;;;;6.68;4.20;;;;;;;-1.52;100.00;99213.84;4998592;28;20069;-90
2023/11/29 03:29:55;;;;;;;7.05;5.10;;;;;;;-1.49;100.00;99213.38;4999920;28;20054;-89
2023/11/29 03:32:26;;;;;;;8.93;5.07;;;;;;;-1.50;100.00;99214.44;5012980;28;20061;-85
2023/11/29 03:34:59;;;;;;;8.95;5.03;;;;;;;-1.50;100.00;99204.56;5011134;28;20925;-88
2023/11/29 03:37:27;;;;;;;9.45;5.25;;;;;;;-1.54;100.00;99206.06;5012931;28;20058;-89
2023/11/29 03:40:00;;;;;;;7.72;5.00;;;;;;;-1.45;100.00;99206.50;5026729;28;20049;-90
2023/11/29 03:42:35;;;;;;;7.93;5.10;;;;;;;-1.42;100.00;99209.53;5016559;28;20431;-90
2023/11/29 03:45:04;;;;;;;8.48;5.68;;;;;;;-1.42;100.00;99193.50;5011663;28;20077;-89
2023/11/29 03:47:37;;;;;;;7.47;4.50;;;;;;;-1.38;100.00;99197.34;5008650;28;20044;-88
2023/11/29 03:50:06;;;;;;;7.95;4.32;;;;;;;-1.39;100.00;99192.22;5015380;28;20056;-88
2023/11/29 03:52:40;;;;;;;8.52;4.75;;;;;;;-1.38;100.00;99192.00;5020976;28;20069;-90
2023/11/29 03:55:08;;;;;;;8.43;5.22;;;;;;;-1.38;100.00;99186.66;5009670;28;20060;-90
2023/11/29 03:57:43;;;;;;;9.73;5.78;;;;;;;-1.28;100.00;99193.25;5011549;28;20041;-90
2023/11/29 04:00:13;;;;;;;9.20;4.78;;;;;;;-1.27;100.00;99189.50;5015737;28;20043;-89
2023/11/29 04:02:47;;;;;;;8.43;5.05;;;;;;;-1.27;100.00;99179.66;5013419;28;20045;-90
2023/11/29 04:05:15;;;;;;;7.57;4.97;;;;;;;-1.22;100.00;99181.59;5016910;28;20069;-89
2023/11/29 04:07:48;;;;;;;5.43;4.25;;;;;;;-1.10;100.00;99178.88;5007143;28;20046;-89
2023/11/29 04:10:22;;;;;;;5.70;4.15;;;;;;;-1.14;100.00;99172.41;5012482;28;20590;-89
2023/11/29 04:12:57;;;;;;;9.20;5.85;;;;;;;-1.15;100.00;99163.56;5010347;28;20054;-89
2023/11/29 04:15:30;;;;;;;5.63;4.03;;;;;;;-1.14;100.00;99167.88;5017686;28;20046;-90
2023/11/29 04:18:03;;;;;;;7.55;5.28;;;;;;;-1.21;100.00;99153.88;5013969;28;20050;-90
2023/11/29 04:20:37;;;;;;;7.30;4.95;;;;;;;-1.11;100.00;99163.91;5014910;28;20054;-88
2023/11/29 04:23:10;;;;;;;6.22;4.50;;;;;;;-1.12;100.00;99162.28;5013166;28;20505;-88
2023/11/29 04:25:45;;;;;;;7.65;5.60;;;;;;;-1.12;100.00;99147.09;5014272;28;20050;-87
2023/11/29 04:28:14;;;;;;;12.95;4.57;;;;;;;-1.10;100.00;99144.97;5027224;28;20046;-90
2023/11/29 04:30:43;;;;;;;6.30;4.53;;;;;;;-1.09;100.00;99143.94;5016025;28;20053;-89
2023/11/29 04:33:16;;;;;;;8.07;4.85;;;;;;;-1.06;100.00;99147.97;5013588;28;20065;-91
2023/11/29 04:35:53;;;;;;;7.63;5.05;;;;;;;-1.07;100.00;99139.16;5011856;28;20525;-91
2023/11/29 04:38:26;;;;;;;7.07;5.03;;;;;;;-1.03;100.00;99147.50;5016197;28;20061;-91
2023/11/29 04:41:00;;;;;;;11.43;5.47;;;;;;;-1.06;100.00;99137.31;5012180;28;20065;-90
2023/11/29 04:43:34;;;;;;;7.10;4.78;;;;;;;-1.01;100.00;99147.25;5008186;28;20050;-91
2023/11/29 04:46:03;;;;;;;6.10;4.18;;;;;;;-1.01;100.00;99150.72;5012343;28;20502;-91
2023/11/29 04:48:31;;;;;;;7.00;4.57;;;;;;;-0.97;100.00;99133.16;5004354;28;20050;-91
2023/11/29 04:50:59;;;;;;;4.85;3.28;;;;;;;-0.97;100.00;99137.72;5022236;28;20063;-87
2023/11/29 04:53:28;;;;;;;6.50;4.28;;;;;;;-0.98;100.00;99130.75;5012621;28;20065;-90
2023/11/29 04:55:56;;;;;;;8.85;5.00;;;;;;;-0.93;100.00;99134.31;5012879;28;20053;-90
2023/11/29 04:58:30;;;;;;;14.43;5.25;;;;;;;-0.92;100.00;99124.44;5008785;28;20050;-89
2023/11/29 05:01:05;;;;;;;7.72;4.32;;;;;;;-0.91;100.00;99126.88;5000850;28;20387;-90
2023/11/29 05:03:38;;;;;;;5.22;3.90;;;;;;;-0.95;100.00;99119.56;5006756;28;20065;-90
2023/11/29 05:06:09;;;;;;;7.68;4.55;;;;;;;-0.91;100.00;99115.34;5001896;28;20050;-91
2023/11/29 05:08:37;;;;;;;6.20;4.10;;;;;;;-0.94;100.00;99116.69;5008464;28;20502;-91
2023/11/29 05:11:11;;;;;;;7.60;5.30;;;;;;;-0.93;100.00;99110.25;5023605;28;20061;-91
2023/11/29 05:13:40;;;;;;;8.02;4.40;;;;;;;-1.00;100.00;99104.28;5008955;28;20065;-91
2023/11/29 05:16:14;;;;;;;8.95;5.50;;;;;;;-0.94;100.00;99105.16;5034112;28;20068;-89
2023/11/29 05:18:47;;;;;;;7.88;5.60;;;;;;;-0.94;100.00;99116.69;5006301;28;20058;-91
2023/11/29 05:21:17;;;;;;;12.80;5.50;;;;;;;-0.95;100.00;99115.06;5020997;28;20057;-91
2023/11/29 05:23:45;;;;;;;6.40;4.25;;;;;;;-0.91;100.00;99116.19;5024834;28;20069;-91
2023/11/29 05:26:19;;;;;;;18.10;11.23;;;;;;;-0.95;100.00;99109.72;5022407;28;20424;-90
2023/11/29 05:28:47;;;;;;;17.13;12.00;;;;;;;-0.80;100.00;99116.34;5019068;28;20434;-91
2023/11/29 05:31:22;;;;;;;18.13;12.15;;;;;;;-0.90;100.00;99109.81;5023481;28;20417;-90
2023/11/29 05:33:55;;;;;;;20.25;13.05;;;;;;;-0.90;100.00;99107.13;5008473;28;20424;-89
2023/11/29 05:36:28;;;;;;;20.80;13.05;;;;;;;-0.89;100.00;99113.28;5010052;28;20421;-91
2023/11/29 05:38:56;;;;;;;22.45;13.75;;;;;;;-0.89;100.00;99106.06;5010081;28;20781;-92
2023/11/29 05:41:29;;;;;;;23.67;14.95;;;;;;;-0.83;100.00;99106.16;5005262;28;20428;-88
2023/11/29 05:43:58;;;;;;;25.00;15.18;;;;;;;-0.78;100.00;99101.69;5011242;28;20771;-89
2023/11/29 05:46:32;;;;;;;25.92;15.35;;;;;;;-0.82;100.00;99099.75;5020868;28;20440;-90
2023/11/29 05:49:00;;;;;;;28.15;16.60;;;;;;;-0.80;100.00;99097.63;5022430;28;20432;-91
2023/11/29 05:51:35;;;;;;;29.43;17.10;;;;;;;-0.82;100.00;99092.53;5022508;28;20447;-90
2023/11/29 05:54:03;;;;;;;28.55;16.50;;;;;;;-0.79;100.00;99099.25;5007001;28;20426;-92
2023/11/29 05:56:36;;;;;;;31.67;16.80;;;;;;;-0.86;100.00;99097.59;5003074;28;20422;-89
2023/11/29 05:59:09;;;;;;;34.03;17.73;;;;;;;-0.76;100.00;99091.59;5020898;28;20451;-91
2023/11/29 06:01:44;;;;;;;29.80;16.58;;;;;;;-0.79;100.00;99093.91;5022230;28;20442;-90
2023/11/29 06:04:18;;;;;;;28.80;16.67;;;;;;;-0.77;100.00;99097.97;5009855;28;20432;-91
2023/11/29 06:06:51;;;;;;;31.20;17.88;;;;;;;-0.80;100.00;99097.63;5009030;28;20440;-91
2023/11/29 06:09:28;;;;;;;28.70;16.75;;;;;;;-0.83;100.00;99090.91;5013781;28;20424;-91
2023/11/29 06:12:01;;;;;;;28.23;16.35;;;;;;;-0.83;100.00;99098.94;5008541;28;20959;-91
2023/11/29 06:14:35;;;;;;;30.85;17.73;;;;;;;-0.85;100.00;99101.06;5007553;28;20423;-91
2023/11/29 06:17:09;;;;;;;27.67;15.80;;;;;;;-0.81;100.00;99093.38;5009462;28;20428;-91
2023/11/29 06:19:38;;;;;;;26.65;16.77;;;;;;;-0.77;100.00;99095.31;5007823;28;20431;-91
2023/11/29 06:22:11;;;;;;;25.98;15.40;;;;;;;-0.79;100.00;99105.41;5011318;28;20416;-87
2023/11/29 06:24:40;;;;;;;23.50;14.93;;;;;;;-0.75;100.00;99111.09;5012108;28;20431;-90
2023/11/29 06:27:13;;;;;;;26.50;15.55;;;;;;;-0.85;100.00;99101.06;5013734;28;20435;-91
2023/11/29 06:29:46;;;;;;;26.08;15.57;;;;;;;-0.83;100.00;99100.81;5013287;28;20417;-91
2023/11/29 06:32:22;;;;;;;26.40;15.43;;;;;;;-0.81;100.00;99107.53;5009608;28;20428;-89
2023/11/29 06:34:56;;;;;;;22.85;13.70;;;;;;;-0.80;100.00;99097.63;5023136;28;20428;-91
2023/11/29 06:37:29;;;;;;;23.70;14.80;;;;;;;-0.70;100.00;99090.59;5011089;28;21111;-92
2023/11/29 06:40:04;;;;;;;24.60;14.50;;;;;;;-0.79;100.00;99099.25;5007575;28;20436;-91
2023/11/29 06:42:39;;;;;;;25.38;14.85;;;;;;;-0.80;100.00;99102.97;5016502;28;20409;-90
2023/11/29 06:45:12;;;;;;;23.38;14.18;;;;;;;-0.74;100.00;99112.72;5025288;28;20425;-83
2023/11/29 06:47:47;;;;;;;27.83;15.20;;;;;;;-0.79;100.00;99108.06;5015034;28;20482;-90
2023/11/29 06:50:16;;;;;;;25.73;14.85;;;;;;;-0.73;100.00;99104.44;5012810;28;20421;-91
2023/11/29 06:52:49;;;;;;;24.23;14.63;;;;;;;-0.75;100.00;99105.75;5009112;28;20998;-89
2023/11/29 06:55:22;;;;;;;23.50;14.60;;;;;;;-0.76;100.00;99102.28;5019397;28;20776;-89
2023/11/29 06:57:50;;;;;;;23.52;13.88;;;;;;;-0.75;100.00;99103.88;5010516;28;20424;-90
2023/11/29 07:00:24;;;;;;;22.73;13.52;;;;;;;-0.63;100.00;99111.81;5023152;28;20435;-90
2023/11/29 07:02:53;;;;;;;23.53;13.93;;;;;;;-0.71;100.00;99107.66;5015001;28;20428;-91
2023/11/29 07:05:22;;;;;;;25.25;13.90;;;;;;;-0.69;100.00;99100.22;5027104;28;20436;-90
2023/11/29 07:07:51;;;;;;;22.50;13.77;;;;;;;-0.71;100.00;99106.88;5005965;28;20430;-92
2023/11/29 07:10:26;;;;;;;24.20;14.38;;;;;;;-0.69;100.00;99110.91;5005874;28;20425;-91
2023/11/29 07:13:00;;;;;;;25.88;15.07;;;;;;;-0.71;100.00;99104.19;5012504;28;20432;-91
2023/11/29 07:15:33;;;;;;;26.10;14.88;;;;;;;-0.64;100.00;99099.50;5018322;28;20440;-91
2023/11/29 07:18:08;;;;;;;26.08;15.57;;;;;;;-0.62;100.00;99107.25;5012322;28;20436;-89
2023/11/29 07:20:37;;;;;;;25.08;14.57;;;;;;;-0.54;100.00;99098.81;5027887;28;20428;-92
2023/11/29 07:23:10;;;;;;;27.27;14.43;;;;;;;-0.66;100.00;99095.44;5016776;28;20435;-88
2023/11/29 07:25:43;;;;;;;25.95;14.77;;;;;;;-0.71;100.00;99104.19;5014508;28;20421;-92
2023/11/29 07:28:11;;;;;;;26.65;15.20;;;;;;;-0.66;100.00;99106.13;5012831;28;20757;-89
2023/11/29 07:30:40;;;;;;;26.33;14.75;;;;;;;-0.66;100.00;99106.13;5014271;28;20424;-91
2023/11/29 07:33:14;;;;;;;27.35;15.00;;;;;;;-0.62;100.00;99115.28;5009497;28;20436;-90
2023/11/29 07:35:43;;;;;;;26.00;14.98;;;;;;;-0.56;100.00;99117.78;5010766;28;20415;-92
2023/11/29 07:38:16;;;;;;;25.17;14.70;;;;;;;-0.51;100.00;99125.09;5005656;28;20456;-89
2023/11/29 07:40:44;;;;;;;25.15;14.43;;;;;;;-0.57;100.00;99124.16;5010305;28;20436;-90
2023/11/29 07:43:18;;;;;;;23.95;13.95;;;;;;;-0.58;100.00;99116.41;5011287;28;20425;-92
2023/11/29 07:45:51;;;;;;;25.08;14.70;;;;;;;-0.52;100.00;99110.88;5021368;28;20426;-91
2023/11/29 07:48:21;;;;;;;26.10;14.80;;;;;;;-0.61;100.00;99107.00;5013407;28;20414;-90
2023/11/29 07:50:50;;;;;;;24.67;14.85;;;;;;;-0.47;100.00;99112.03;5008931;28;20443;-90
2023/11/29 07:53:19;;;;;;;26.08;15.27;;;;;;;-0.65;100.00;99105.88;5011953;28;20432;-85
2023/11/29 07:55:52;;;;;;;26.10;15.07;;;;;;;-0.62;100.00;99100.06;5009069;28;20426;-89
2023/11/29 07:58:20;;;;;;;26.75;15.45;;;;;;;-0.50;100.00;99109.84;5010644;28;20416;-89
2023/11/29 08:00:53;;;;;;;27.88;15.48;;;;;;;-0.53;100.00;99111.94;5003439;28;20439;-89
2023/11/29 08:03:28;;;;;;;26.42;15.65;;;;;;;-0.61;100.00;99109.69;5011564;28;20443;-88
2023/11/29 08:05:56;;;;;;;26.25;15.55;;;;;;;-0.62;100.00;99108.09;5005996;28;20445;-91
2023/11/29 08:08:24;;;;;;;26.67;15.32;;;;;;;-0.50;100.00;99112.50;5011083;28;20433;-92
2023/11/29 08:10:58;;;;;;;28.30;16.17;;;;;;;-0.58;100.00;99121.75;5011271;28;20453;-90
2023/11/29 08:13:28;;;;;;;31.08;17.35;;;;;;;-0.49;100.00;99106.13;5008023;28;21238;-84
2023/11/29 08:16:01;;;;;;;32.80;17.47;;;;;;;-0.44;100.00;99096.31;5010714;28;20961;-90
2023/11/29 08:18:36;;;;;;;28.52;16.58;;;;;;;-0.50;100.00;99105.28;4968206;28;20444;-84
2023/11/29 08:21:05;;;;;;;29.88;16.00;;;;;;;-0.47;100.00;99099.47;4999362;28;20436;-86
2023/11/29 08:23:33;;;;;;;28.50;16.45;;;;;;;-0.48;100.00;99113.06;4996886;28;20431;-89
2023/11/29 08:26:06;;;;;;;26.88;16.23;;;;;;;-0.49;100.00;99098.91;5003489;28;20433;-87
2023/11/29 08:28:35;;;;;;;28.70;16.00;;;;;;;-0.44;100.00;99104.34;4999633;28;21240;-90
2023/11/29 08:31:08;;;;;;;29.10;15.70;;;;;;;-0.50;100.00;99105.28;5005383;28;20434;-87
2023/11/29 08:33:38;;;;;;;27.95;16.30;;;;;;;-0.43;100.00;99094.44;5009595;28;20420;-84
2023/11/29 08:36:11;;;;;;;27.65;15.43;;;;;;;-0.38;100.00;99106.00;5003515;28;20436;-87
2023/11/29 08:38:46;;;;;;;26.93;15.77;;;;;;;-0.38;100.00;99103.34;5000010;28;20477;-86
2023/11/29 08:41:14;;;;;;;26.23;15.18;;;;;;;-0.46;100.00;99109.09;4992860;28;20432;-88
2023/11/29 08:43:48;;;;;;;28.20;15.80;;;;;;;-0.42;100.00;99096.84;5001840;28;20440;-85
2023/11/29 08:46:16;;;;;;;26.73;14.90;;;;;;;-0.43;100.00;99097.94;5004152;28;20451;-87
2023/11/29 08:48:46;;;;;;;27.48;15.77;;;;;;;-0.50;100.00;99096.47;5005718;28;20778;-87
2023/11/29 08:51:19;;;;;;;26.95;15.63;;;;;;;-0.33;100.00;99097.25;4999789;28;20826;-85
2023/11/29 08:53:49;;;;;;;26.50;15.43;;;;;;;-0.29;100.00;99095.72;5007261;28;20438;-91
2023/11/29 08:56:23;;;;;;;25.90;14.85;;;;;;;-0.37;100.00;99099.59;5000110;28;20438;-86
2023/11/29 08:58:56;;;;;;;25.63;14.70;;;;;;;-0.32;100.00;99106.88;5006079;28;20951;-92
2023/11/29 09:01:25;;;;;;;27.38;14.93;;;;;;;-0.43;100.00;99091.75;4998142;28;20438;-89
2023/11/29 09:03:55;;;;;;;24.73;14.05;;;;;;;-0.31;100.00;99099.69;5002201;28;20460;-82
2023/11/29 09:06:29;;;;;;;25.13;13.82;;;;;;;-0.27;100.00;99098.94;5002171;28;20439;-89
2023/11/29 09:08:58;;;;;;;23.95;14.32;;;;;;;-0.27;100.00;99098.13;4999689;28;21740;-87
2023/11/29 09:11:26;;;;;;;26.02;15.07;;;;;;;-0.38;100.00;99087.28;5001543;28;20425;-85
2023/11/29 09:13:59;;;;;;;26.90;14.98;;;;;;;-0.33;100.00;99107.13;5002753;28;20433;-89
2023/11/29 09:16:33;;;;;;;25.45;14.45;;;;;;;-0.40;100.00;99096.59;5006095;28;20447;-84
2023/11/29 09:19:08;;;;;;;28.02;14.80;;;;;;;-0.34;100.00;99100.97;4998536;28;21364;-89
2023/11/29 09:21:36;;;;;;;26.25;14.63;;;;;;;-0.30;100.00;99104.78;4994318;28;20423;-87
2023/11/29 09:24:05;;;;;;;23.88;14.20;;;;;;;-0.33;100.00;99093.75;4998447;28;20442;-88
2023/11/29 09:26:33;;;;;;;23.33;13.50;;;;;;;-0.27;100.00;99098.94;5004460;28;20437;-89
2023/11/29 09:29:07;;;;;;;25.48;14.63;;;;;;;-0.27;100.00;99106.94;4999937;28;20446;-87
2023/11/29 09:31:35;;;;;;;29.63;18.10;;;;;;;-0.31;100.00;99105.03;5004965;28;21099;-89
2023/11/29 09:34:04;;;;;;;27.52;16.00;;;;;;;-0.22;100.00;99107.03;5001457;28;20423;-87
2023/11/29 09:36:39;;;;;;;24.37;14.60;;;;;;;-0.33;100.00;99102.63;5001050;28;21101;-87
2023/11/29 09:39:14;;;;;;;26.50;15.90;;;;;;;-0.35;100.00;99094.84;5000903;28;20425;-85
2023/11/29 09:41:48;;;;;;;26.77;15.13;;;;;;;-0.28;100.00;99094.63;5004737;28;20433;-84
2023/11/29 09:44:21;;;;;;;27.73;15.40;;;;;;;-0.32;100.00;99095.38;5004411;28;20451;-87
2023/11/29 09:46:50;;;;;;;29.50;16.52;;;;;;;-0.28;100.00;99094.63;5005242;28;20421;-86
2023/11/29 09:49:18;;;;;;;28.25;16.23;;;;;;;-0.31;100.00;99095.13;5000679;28;20447;-86
2023/11/29 09:51:48;;;;;;;27.83;15.65;;;;;;;-0.41;100.00;99090.47;5003343;28;20443;-90
2023/11/29 09:54:21;;;;;;;28.42;16.95;;;;;;;-0.36;100.00;99100.41;5001616;28;20431;-88
2023/11/29 09:56:50;;;;;;;28.10;16.02;;;;;;;-0.29;100.00;99100.22;4998146;28;20446;-85
2023/11/29 09:59:19;;;;;;;26.63;14.90;;;;;;;-0.23;100.00;99093.91;5003027;28;20433;-89
2023/11/29 10:01:48;;;;;;;28.92;16.13;;;;;;;-0.33;100.00;99089.25;4999035;28;20966;-89
2023/11/29 10:04:21;;;;;;;29.63;15.70;;;;;;;-0.26;100.00;99087.19;5007315;28;20495;-88
2023/11/29 10:06:56;;;;;;;28.60;14.85;;;;;;;-0.16;100.00;99091.84;4999335;28;20431;-87
2023/11/29 10:09:25;;;;;;;25.27;15.05;;;;;;;-0.26;100.00;99092.53;5001320;28;20439;-90
2023/11/29 10:11:58;;;;;;;25.48;14.30;;;;;;;-0.23;100.00;99088.56;5001211;28;20428;-87
2023/11/29 10:14:25;;;;;;;24.38;14.35;;;;;;;-0.17;100.00;99090.22;4999698;28;20432;-87
2023/11/29 10:16:54;;;;;;;25.13;13.93;;;;;;;-0.23;100.00;99086.69;5000383;28;20451;-87
2023/11/29 10:19:27;;;;;;;25.75;14.00;;;;;;;-0.20;100.00;99094.22;4982016;28;20432;-88
2023/11/29 10:21:57;;;;;;;24.17;13.75;;;;;;;-0.19;100.00;99087.00;5000278;28;20439;-87
2023/11/29 10:24:26;;;;;;;23.98;13.85;;;;;;;-0.28;100.00;99078.59;4999502;28;20438;-87
2023/11/29 10:26:55;;;;;;;24.48;13.80;;;;;;;-0.22;100.00;99080.28;5005082;28;20417;-88
2023/11/29 10:29:28;;;;;;;25.77;14.15;;;;;;;-0.20;100.00;99080.03;4999068;28;20430;-87
2023/11/29 10:31:59;;;;;;;23.87;13.97;;;;;;;-0.16;100.00;99081.16;4997387;28;20431;-87
2023/11/29 10:34:34;;;;;;;23.73;13.43;;;;;;;-0.12;100.00;99079.63;4999895;28;20431;-87
2023/11/29 10:37:09;;;;;;;25.90;14.25;;;;;;;-0.02;100.00;99076.25;4997578;28;20419;-87
2023/11/29 10:39:45;;;;;;;26.15;14.02;;;;;;;0.15;100.00;99079.66;4999591;28;20439;-85
2023/11/29 10:42:18;;;;;;;24.05;13.32;;;;;;;0.26;100.00;99079.78;4999475;28;21234;-87
2023/11/29 10:44:52;;;;;;;24.67;13.55;;;;;;;0.27;100.00;99074.16;4997048;28;20457;-86
2023/11/29 10:47:29;;;;;;;24.92;14.02;;;;;;;-0.03;100.00;99075.44;5005730;28;20962;-86
2023/11/29 10:50:07;;;;;;;24.02;14.27;;;;;;;0.02;100.00;99079.25;4997422;28;20438;-87
2023/11/29 10:52:42;;;;;;;24.25;13.98;;;;;;;0.04;100.00;99074.44;5000895;28;20438;-86
2023/11/29 10:55:10;;;;;;;25.95;14.02;;;;;;;0.08;100.00;99076.34;4995461;28;20433;-87
2023/11/29 10:57:49;;;;;;;22.50;12.68;;;;;;;0.04;100.00;99069.88;4995453;28;20788;-86
2023/11/29 11:00:25;;;;;;;25.17;13.55;;;;;;;0.03;100.00;99067.47;4997160;28;20426;-86
2023/11/29 11:02:53;;;;;;;23.55;13.00;;;;;;;0.08;100.00;99067.53;4998707;28;20440;-87
2023/11/29 11:05:30;;;;;;;27.30;13.98;;;;;;;0.05;100.00;99062.69;5002309;28;20446;-86
2023/11/29 11:08:04;;;;;;;25.13;13.50;;;;;;;0.11;100.00;99067.84;5001473;28;20429;-87
2023/11/29 11:10:33;;;;;;;22.67;12.95;;;;;;;-0.01;100.00;99067.97;4997676;28;21099;-89
2023/11/29 11:13:02;;;;;;;24.83;14.07;;;;;;;0.08;100.00;99072.88;4998770;28;20432;-85
2023/11/29 11:15:37;;;;;;;23.83;13.52;;;;;;;0.07;100.00;99073.94;4998075;28;20448;-85
2023/11/29 11:18:26;;;;;;;23.85;13.55;;;;;;;-0.01;100.00;99067.19;4997228;28;21248;-84
2023/11/29 11:21:02;;;;;;;33.75;17.95;;;;;;;0.00;100.00;99068.81;4979849;28;20446;-86
2023/11/29 11:23:32;;;;;;;36.63;18.23;;;;;;;-0.06;100.00;99062.56;5000005;28;20461;-84
2023/11/29 11:26:09;;;;;;;33.25;18.33;;;;;;;0.06;100.00;99058.97;5004567;28;20429;-84
2023/11/29 11:28:39;;;;;;;32.88;18.35;;;;;;;0.02;100.00;99060.53;4998641;28;20434;-85
2023/11/29 11:31:13;;;;;;;26.88;14.55;;;;;;;-0.03;100.00;99059.41;4997695;28;21355;-83
2023/11/29 11:34:09;;;;;;;25.05;13.93;;;;;;;0.00;100.00;99060.78;4995087;28;20446;-84
2023/11/29 11:36:47;;;;;;;25.30;14.15;;;;;;;-0.11;100.00;99053.66;5000994;28;20439;-84
2023/11/29 11:39:23;;;;;;;24.30;13.98;;;;;;;0.08;100.00;99046.94;4997133;28;20800;-87